Time;durP1;ratioP1;P1;durP2;ratioP2;P2;SDS_P1;SDS_P2;PMS_P1;PMS_P2;Temp;Humidity;BMP_temperature;BMP_pressure;BME280_temperature;BME280_humidity;BME280_pressure;Samples;Min_cycle;Max_cycle;Signal;HPM_P1;HPM_P2
2022/07/25 00:00:28;;;;;;;8.98;7.60;;;20.60;99.90;;;;;;5096771;28;20632;-66
2022/07/25 00:02:53;;;;;;;10.40;7.28;;;20.50;99.90;;;;;;5097173;28;20193;-66
2022/07/25 00:05:19;;;;;;;10.82;7.63;;;20.50;99.90;;;;;;5096422;28;20184;-67
2022/07/25 00:07:45;;;;;;;10.80;8.13;;;20.50;99.90;;;;;;5096696;28;20176;-66
2022/07/25 00:10:11;;;;;;;9.07;7.30;;;20.40;99.90;;;;;;5097084;28;20608;-67
2022/07/25 00:12:36;;;;;;;9.65;7.03;;;20.30;99.90;;;;;;5096964;28;20189;-66
2022/07/25 00:15:03;;;;;;;10.05;7.45;;;20.30;99.90;;;;;;5096545;28;20173;-66
2022/07/25 00:17:29;;;;;;;10.25;7.20;;;20.20;99.90;;;;;;5096321;28;20646;-67
2022/07/25 00:19:55;;;;;;;12.82;7.68;;;20.20;99.90;;;;;;5096411;28;20242;-67
2022/07/25 00:22:21;;;;;;;10.27;7.68;;;20.10;99.90;;;;;;5096328;28;20212;-67
2022/07/25 00:24:47;;;;;;;9.20;7.07;;;20.10;99.90;;;;;;5096215;28;20211;-67
2022/07/25 00:27:14;;;;;;;8.40;6.97;;;20.10;99.90;;;;;;5096530;28;20211;-67
2022/07/25 00:29:40;;;;;;;11.32;7.43;;;20.00;99.90;;;;;;5096419;28;20630;-67
2022/07/25 00:32:07;;;;;;;9.70;7.18;;;20.00;99.90;;;;;;5094869;28;20189;-67
2022/07/25 00:34:33;;;;;;;7.22;6.20;;;20.10;99.90;;;;;;5094704;28;20173;-66
2022/07/25 00:36:59;;;;;;;10.70;6.97;;;20.00;99.90;;;;;;5078026;28;20185;-67
2022/07/25 00:39:25;;;;;;;11.52;7.88;;;19.90;99.90;;;;;;5096339;28;20554;-67
2022/07/25 00:41:51;;;;;;;8.70;7.18;;;19.90;99.90;;;;;;5095980;28;20169;-67
2022/07/25 00:44:24;;;;;;;10.52;7.88;;;19.80;99.90;;;;;;5095900;28;20526;-67
2022/07/25 00:46:51;;;;;;;10.80;7.43;;;19.80;99.90;;;;;;5095952;28;20169;-67
2022/07/25 00:49:17;;;;;;;8.27;6.85;;;19.80;99.90;;;;;;5095934;28;20260;-66
2022/07/25 00:51:43;;;;;;;9.88;7.38;;;19.80;99.90;;;;;;5097475;28;20200;-66
2022/07/25 00:54:10;;;;;;;9.65;7.10;;;19.80;99.90;;;;;;5097178;28;20250;-66
2022/07/25 00:56:36;;;;;;;8.75;7.05;;;19.70;99.90;;;;;;5097729;28;20169;-66
2022/07/25 00:59:03;;;;;;;7.88;6.00;;;19.60;99.90;;;;;;5096676;28;20223;-66
2022/07/25 01:01:28;;;;;;;9.55;7.25;;;19.60;99.90;;;;;;5096469;28;20193;-66
2022/07/25 01:03:54;;;;;;;9.77;7.10;;;19.60;99.90;;;;;;5095884;28;20200;-66
2022/07/25 01:06:20;;;;;;;10.75;7.28;;;19.60;99.90;;;;;;5095311;28;20721;-66
2022/07/25 01:08:46;;;;;;;11.70;8.00;;;19.60;99.90;;;;;;5095832;28;20610;-67
2022/07/25 01:11:12;;;;;;;10.25;7.30;;;19.50;99.90;;;;;;5095408;28;20181;-67
2022/07/25 01:13:38;;;;;;;10.52;7.65;;;19.50;99.90;;;;;;5095550;28;20196;-66
2022/07/25 01:16:04;;;;;;;8.52;7.50;;;19.40;99.90;;;;;;5095576;28;20173;-67
2022/07/25 01:18:30;;;;;;;9.48;7.60;;;19.40;99.90;;;;;;5095279;28;20188;-67
2022/07/25 01:20:56;;;;;;;13.93;8.52;;;19.40;99.90;;;;;;5094991;28;20192;-67
2022/07/25 01:23:22;;;;;;;9.63;7.70;;;19.30;99.90;;;;;;5094905;28;20201;-67
2022/07/25 01:25:48;;;;;;;9.57;7.15;;;19.30;99.90;;;;;;5093838;28;20177;-67
2022/07/25 01:28:13;;;;;;;14.00;7.45;;;19.30;99.90;;;;;;5095118;28;20577;-67
2022/07/25 01:30:39;;;;;;;9.60;7.38;;;19.30;99.90;;;;;;5095030;28;20627;-67
2022/07/25 01:33:05;;;;;;;8.52;6.95;;;19.30;99.90;;;;;;5094950;28;20798;-66
2022/07/25 01:35:31;;;;;;;11.18;7.80;;;19.30;99.90;;;;;;5094964;28;20180;-67
2022/07/25 01:37:56;;;;;;;8.50;7.38;;;19.30;99.90;;;;;;5095322;28;20153;-67
2022/07/25 01:40:22;;;;;;;10.30;7.50;;;19.20;99.90;;;;;;5095374;28;20268;-67
2022/07/25 01:42:48;;;;;;;9.75;7.78;;;19.20;99.90;;;;;;5095073;28;20204;-67
2022/07/25 01:45:14;;;;;;;10.27;7.15;;;19.30;99.90;;;;;;5095330;28;20173;-67
2022/07/25 01:47:39;;;;;;;9.95;7.50;;;19.20;99.90;;;;;;5094340;28;20200;-67
2022/07/25 01:50:06;;;;;;;8.75;7.13;;;19.10;99.90;;;;;;5094225;28;20169;-68
2022/07/25 01:52:32;;;;;;;8.55;7.22;;;19.10;99.90;;;;;;5094729;28;20212;-68
2022/07/25 01:54:58;;;;;;;9.52;7.05;;;19.10;99.90;;;;;;5094681;28;20173;-68
2022/07/25 01:57:23;;;;;;;8.65;6.75;;;19.00;99.90;;;;;;5094518;28;20196;-68
2022/07/25 01:59:49;;;;;;;10.13;7.93;;;19.00;99.90;;;;;;5094468;28;20250;-68
2022/07/25 02:02:15;;;;;;;10.98;7.30;;;19.00;99.90;;;;;;5094296;28;20192;-67
2022/07/25 02:04:41;;;;;;;12.25;7.65;;;19.00;99.90;;;;;;5094829;28;20176;-68
2022/07/25 02:07:06;;;;;;;10.15;7.50;;;19.00;99.90;;;;;;5094491;28;20173;-68
2022/07/25 02:09:32;;;;;;;11.48;8.00;;;19.10;99.90;;;;;;5094289;28;20177;-68
2022/07/25 02:11:58;;;;;;;9.75;7.57;;;19.10;99.90;;;;;;5094239;28;20165;-67
2022/07/25 02:14:24;;;;;;;9.65;7.47;;;19.00;99.90;;;;;;5094273;28;20197;-67
2022/07/25 02:16:49;;;;;;;12.88;7.75;;;18.90;99.90;;;;;;5094237;28;20169;-67
2022/07/25 02:19:15;;;;;;;9.32;7.22;;;18.80;99.90;;;;;;5093978;28;20177;-68
2022/07/25 02:21:41;;;;;;;12.48;8.40;;;18.80;99.90;;;;;;5093837;28;20576;-68
2022/07/25 02:24:07;;;;;;;9.35;7.57;;;18.90;99.90;;;;;;5094503;28;20201;-68
2022/07/25 02:26:33;;;;;;;13.13;8.27;;;18.80;99.90;;;;;;5094359;28;20710;-67
2022/07/25 02:28:59;;;;;;;9.88;7.35;;;18.80;99.90;;;;;;5093865;28;20649;-68
2022/07/25 02:31:24;;;;;;;11.30;7.47;;;18.80;99.90;;;;;;5093952;28;20234;-68
2022/07/25 02:33:50;;;;;;;10.98;7.40;;;18.70;99.90;;;;;;5093833;28;20243;-68
2022/07/25 02:36:16;;;;;;;10.77;7.60;;;18.70;99.90;;;;;;5093565;28;20539;-68
2022/07/25 02:38:42;;;;;;;10.90;8.23;;;18.70;99.90;;;;;;5094421;28;20234;-68
2022/07/25 02:41:08;;;;;;;9.73;7.10;;;18.70;99.90;;;;;;5092404;28;20205;-68
2022/07/25 02:43:33;;;;;;;10.35;7.50;;;18.70;99.90;;;;;;5093595;28;20189;-68
2022/07/25 02:45:59;;;;;;;9.25;7.35;;;18.70;99.90;;;;;;5093765;28;20230;-68
2022/07/25 02:48:25;;;;;;;9.50;7.75;;;18.70;99.90;;;;;;5094016;28;20173;-68
2022/07/25 02:50:51;;;;;;;8.57;7.25;;;18.70;99.90;;;;;;5093462;28;20177;-68
2022/07/25 02:53:16;;;;;;;11.25;7.93;;;18.60;99.90;;;;;;5092284;28;20615;-68
2022/07/25 02:55:42;;;;;;;8.07;7.03;;;18.60;99.90;;;;;;5092395;28;20272;-68
2022/07/25 02:58:08;;;;;;;10.27;7.40;;;18.50;99.90;;;;;;5093673;28;20181;-68
2022/07/25 03:00:34;;;;;;;10.07;7.60;;;18.50;99.90;;;;;;5093318;28;20201;-68
2022/07/25 03:03:00;;;;;;;8.50;7.45;;;18.50;99.90;;;;;;5092322;28;20189;-68
2022/07/25 03:05:25;;;;;;;10.82;8.05;;;18.50;99.90;;;;;;5093444;28;20173;-68
2022/07/25 03:07:51;;;;;;;10.18;8.25;;;18.50;99.90;;;;;;5093596;28;20597;-68
2022/07/25 03:10:17;;;;;;;10.90;8.20;;;18.40;99.90;;;;;;5095835;28;20570;-68
2022/07/25 03:12:43;;;;;;;10.77;7.68;;;18.40;99.90;;;;;;5095996;28;20197;-68
2022/07/25 03:15:11;;;;;;;11.55;8.45;;;18.30;99.90;;;;;;5095847;28;20252;-68
2022/07/25 03:17:38;;;;;;;11.85;8.00;;;18.30;99.90;;;;;;5094903;28;20192;-68
2022/07/25 03:20:07;;;;;;;8.73;7.68;;;18.30;99.90;;;;;;5093404;28;20214;-68
2022/07/25 03:22:34;;;;;;;9.30;8.02;;;18.20;99.90;;;;;;5093244;28;20270;-68
2022/07/25 03:25:00;;;;;;;11.07;7.68;;;18.20;99.90;;;;;;5093629;28;20181;-68
2022/07/25 03:27:25;;;;;;;9.40;7.70;;;18.20;99.90;;;;;;5093268;28;20169;-67
2022/07/25 03:29:53;;;;;;;10.43;7.90;;;18.20;99.90;;;;;;5093475;28;20547;-68
2022/07/25 03:32:19;;;;;;;9.70;8.13;;;18.10;99.90;;;;;;5093374;28;20173;-68
2022/07/25 03:34:45;;;;;;;11.57;8.20;;;18.10;99.90;;;;;;5093297;28;20180;-68
2022/07/25 03:37:10;;;;;;;10.48;7.57;;;18.10;99.90;;;;;;5093474;28;20173;-68
2022/07/25 03:39:36;;;;;;;11.73;9.00;;;18.10;99.90;;;;;;5093145;28;20192;-68
2022/07/25 03:42:02;;;;;;;11.27;7.63;;;18.10;99.90;;;;;;5093254;28;20170;-67
2022/07/25 03:44:28;;;;;;;13.23;8.35;;;18.10;99.90;;;;;;5093261;28;20173;-67
2022/07/25 03:46:54;;;;;;;10.15;8.15;;;18.10;99.90;;;;;;5093397;28;20169;-67
2022/07/25 03:49:19;;;;;;;8.88;7.60;;;18.00;99.90;;;;;;5093307;28;20252;-68
2022/07/25 03:51:45;;;;;;;11.40;7.38;;;18.00;99.90;;;;;;5093063;28;20173;-67
2022/07/25 03:54:14;;;;;;;10.05;7.72;;;18.00;99.90;;;;;;5093201;28;20617;-67
2022/07/25 03:56:43;;;;;;;12.63;8.80;;;17.90;99.90;;;;;;5093383;28;20533;-68
2022/07/25 03:59:10;;;;;;;9.18;7.43;;;17.90;99.90;;;;;;5093055;28;20204;-68
2022/07/25 04:01:37;;;;;;;10.20;7.93;;;18.00;99.90;;;;;;5093218;28;20236;-68
2022/07/25 04:04:04;;;;;;;9.55;7.75;;;18.00;99.90;;;;;;5093014;28;20196;-68
2022/07/25 04:06:29;;;;;;;10.32;8.13;;;18.00;99.90;;;;;;5091611;28;20173;-68
2022/07/25 04:08:55;;;;;;;12.65;8.63;;;18.00;99.90;;;;;;5093255;28;20600;-68
2022/07/25 04:11:22;;;;;;;13.23;8.25;;;18.10;99.90;;;;;;5093863;28;20587;-67
2022/07/25 04:13:48;;;;;;;12.13;8.43;;;18.00;99.90;;;;;;5096631;28;20189;-67
2022/07/25 04:16:14;;;;;;;13.05;8.55;;;18.00;99.90;;;;;;5095528;28;20217;-68
2022/07/25 04:18:40;;;;;;;11.60;7.65;;;18.00;99.90;;;;;;5096291;28;20220;-68
2022/07/25 04:21:07;;;;;;;12.05;8.15;;;18.00;99.90;;;;;;5096089;28;20602;-67
2022/07/25 04:23:33;;;;;;;13.73;7.78;;;18.00;99.90;;;;;;5096336;28;20650;-68
2022/07/25 04:25:59;;;;;;;9.40;7.57;;;18.00;99.90;;;;;;5096290;28;20173;-68
2022/07/25 04:28:25;;;;;;;10.70;7.80;;;18.10;99.90;;;;;;5095124;28;20181;-68
2022/07/25 04:30:51;;;;;;;10.30;7.68;;;18.10;99.90;;;;;;5096230;28;20173;-68
2022/07/25 04:33:16;;;;;;;9.45;7.88;;;18.10;99.90;;;;;;5094873;28;20688;-68
2022/07/25 04:35:42;;;;;;;9.57;7.97;;;18.10;99.90;;;;;;5096071;28;20258;-68
2022/07/25 04:38:08;;;;;;;10.98;7.88;;;18.10;99.90;;;;;;5096041;28;20177;-68
2022/07/25 04:40:34;;;;;;;9.98;8.13;;;18.20;99.90;;;;;;5095942;28;20661;-67
2022/07/25 04:42:59;;;;;;;9.25;8.00;;;18.20;99.90;;;;;;5096263;28;20280;-68
2022/07/25 04:45:25;;;;;;;10.43;8.30;;;18.20;99.90;;;;;;5096253;28;20173;-67
2022/07/25 04:47:52;;;;;;;9.98;8.20;;;18.30;99.90;;;;;;5096151;28;20187;-68
2022/07/25 04:50:18;;;;;;;12.73;8.48;;;18.40;99.90;;;;;;5095867;28;20188;-68
2022/07/25 04:52:44;;;;;;;10.32;7.68;;;18.40;99.90;;;;;;5095955;28;20197;-68
2022/07/25 04:55:10;;;;;;;9.77;8.20;;;18.50;99.90;;;;;;5096118;28;20173;-68
2022/07/25 04:57:35;;;;;;;8.52;7.63;;;18.60;99.90;;;;;;5095662;28;20176;-67
2022/07/25 05:00:04;;;;;;;10.98;7.72;;;18.70;99.90;;;;;;5095655;28;20204;-68
2022/07/25 05:02:30;;;;;;;9.80;8.18;;;18.80;99.90;;;;;;5095876;28;20554;-67
2022/07/25 05:04:56;;;;;;;9.88;8.30;;;18.90;99.90;;;;;;5095590;28;20169;-68
2022/07/25 05:07:22;;;;;;;9.50;8.05;;;18.90;99.90;;;;;;5096061;28;20491;-67
2022/07/25 05:09:47;;;;;;;10.45;8.00;;;19.10;99.90;;;;;;5095446;28;20315;-68
2022/07/25 05:12:13;;;;;;;13.13;8.15;;;19.20;99.90;;;;;;5095396;28;20309;-68
2022/07/25 05:14:39;;;;;;;11.23;8.00;;;19.30;99.90;;;;;;5095682;28;20161;-68
2022/07/25 05:17:05;;;;;;;13.75;7.35;;;19.40;99.90;;;;;;5095285;28;20176;-67
2022/07/25 05:19:30;;;;;;;9.55;8.27;;;19.50;99.90;;;;;;5095031;28;20251;-67
2022/07/25 05:21:56;;;;;;;12.02;8.32;;;19.60;99.90;;;;;;5094872;28;20150;-68
2022/07/25 05:24:22;;;;;;;9.70;7.38;;;19.70;99.90;;;;;;5094030;28;20209;-68
2022/07/25 05:26:49;;;;;;;11.13;7.85;;;19.90;99.90;;;;;;5095288;28;20240;-67
2022/07/25 05:29:15;;;;;;;9.07;7.55;;;20.00;99.90;;;;;;5095253;28;20244;-67
2022/07/25 05:31:42;;;;;;;9.43;6.90;;;20.10;99.90;;;;;;5094906;28;20544;-67
2022/07/25 05:34:08;;;;;;;10.65;7.03;;;20.20;99.90;;;;;;5095225;28;20189;-67
2022/07/25 05:36:34;;;;;;;10.80;7.35;;;20.30;99.90;;;;;;5094646;28;20162;-67
2022/07/25 05:39:00;;;;;;;8.73;6.72;;;20.40;99.90;;;;;;5094726;28;20153;-67
2022/07/25 05:41:26;;;;;;;10.85;7.93;;;20.50;99.90;;;;;;5093479;28;20571;-67
2022/07/25 05:43:52;;;;;;;10.02;6.82;;;20.60;99.90;;;;;;5095677;28;20200;-65
2022/07/25 05:46:18;;;;;;;8.65;7.30;;;20.60;99.90;;;;;;5094609;28;20528;-65
2022/07/25 05:48:43;;;;;;;8.77;6.88;;;20.70;99.90;;;;;;5094598;28;20645;-65
2022/07/25 05:51:09;;;;;;;10.52;7.63;;;20.90;99.90;;;;;;5094299;28;20253;-65
2022/07/25 05:53:36;;;;;;;8.43;6.78;;;21.00;99.90;;;;;;5094677;28;20298;-67
2022/07/25 05:56:02;;;;;;;9.63;7.28;;;21.10;99.90;;;;;;5094592;28;20180;-65
2022/07/25 05:58:28;;;;;;;9.05;7.65;;;21.20;99.90;;;;;;5094759;28;20173;-65
2022/07/25 06:00:54;;;;;;;8.55;6.95;;;21.30;99.90;;;;;;5093489;28;20583;-65
2022/07/25 06:03:19;;;;;;;9.52;6.80;;;21.40;99.90;;;;;;5094574;28;20205;-66
2022/07/25 06:05:46;;;;;;;8.07;6.70;;;21.50;99.90;;;;;;5094469;28;20173;-65
2022/07/25 06:08:13;;;;;;;8.35;7.10;;;21.50;99.90;;;;;;5094561;28;20169;-65
2022/07/25 06:10:39;;;;;;;9.75;6.85;;;21.60;99.90;;;;;;5094725;28;20232;-65
2022/07/25 06:13:05;;;;;;;9.25;8.00;;;21.60;99.90;;;;;;5094074;28;20250;-65
2022/07/25 06:15:31;;;;;;;8.00;6.82;;;21.60;99.90;;;;;;5094755;28;20551;-65
2022/07/25 06:17:56;;;;;;;9.50;7.13;;;21.70;99.90;;;;;;5093923;28;20196;-65
2022/07/25 06:20:22;;;;;;;9.85;7.40;;;21.80;99.90;;;;;;5093795;28;20242;-66
2022/07/25 06:22:48;;;;;;;12.48;7.30;;;21.80;99.90;;;;;;5092669;28;20296;-66
2022/07/25 06:25:15;;;;;;;10.05;8.15;;;21.90;99.90;;;;;;5093935;28;20638;-66
2022/07/25 06:27:41;;;;;;;8.75;7.53;;;22.00;99.90;;;;;;5093972;28;20173;-66
2022/07/25 06:30:09;;;;;;;9.77;7.47;;;22.10;99.90;;;;;;5093908;28;20193;-65
2022/07/25 06:32:35;;;;;;;9.02;7.00;;;22.20;99.90;;;;;;5094385;28;20199;-66
2022/07/25 06:35:00;;;;;;;9.90;7.40;;;22.40;99.90;;;;;;5093704;28;20249;-66
2022/07/25 06:37:26;;;;;;;8.75;7.45;;;22.50;99.90;;;;;;5093747;28;20702;-66
2022/07/25 06:39:52;;;;;;;9.48;7.75;;;22.60;99.90;;;;;;5093690;28;20552;-66
2022/07/25 06:42:18;;;;;;;10.48;7.22;;;22.80;99.90;;;;;;5092427;28;20158;-66
2022/07/25 06:44:44;;;;;;;8.93;6.93;;;22.80;99.90;;;;;;5093793;28;20165;-66
2022/07/25 06:47:11;;;;;;;10.48;6.93;;;22.90;99.90;;;;;;5093641;28;20218;-66
2022/07/25 06:49:40;;;;;;;10.52;6.97;;;23.10;99.90;;;;;;5094602;28;20241;-67
2022/07/25 06:52:06;;;;;;;8.18;6.60;;;23.30;99.90;;;;;;5093545;28;20154;-67
2022/07/25 06:54:32;;;;;;;9.60;6.35;;;23.40;99.90;;;;;;5093904;28;20202;-66
2022/07/25 06:56:58;;;;;;;9.00;7.00;;;23.60;99.90;;;;;;5093654;28;20173;-65
2022/07/25 06:59:24;;;;;;;13.35;7.38;;;23.60;99.90;;;;;;5093859;28;20203;-66
2022/07/25 07:01:50;;;;;;;8.40;6.47;;;23.70;99.90;;;;;;5093833;28;20650;-66
2022/07/25 07:04:16;;;;;;;10.40;6.97;;;23.70;99.90;;;;;;5093445;28;20189;-66
2022/07/25 07:06:42;;;;;;;10.20;7.63;;;23.80;99.90;;;;;;5093504;28;20707;-66
2022/07/25 07:09:09;;;;;;;9.65;6.85;;;24.00;99.90;;;;;;5093540;28;20169;-68
2022/07/25 07:11:34;;;;;;;7.93;6.80;;;24.10;99.90;;;;;;5092201;28;20173;-67
2022/07/25 07:14:03;;;;;;;8.52;6.75;;;24.30;99.90;;;;;;5093808;28;20310;-67
2022/07/25 07:16:30;;;;;;;8.82;6.57;;;24.50;99.90;;;;;;5093626;28;20541;-68
2022/07/25 07:18:56;;;;;;;7.40;6.20;;;24.60;99.90;;;;;;5093301;28;20200;-67
2022/07/25 07:21:22;;;;;;;9.57;6.53;;;24.60;99.90;;;;;;5093150;28;20228;-68
2022/07/25 07:23:48;;;;;;;9.13;6.82;;;24.70;99.90;;;;;;5093269;28;20192;-68
2022/07/25 07:26:14;;;;;;;7.30;6.18;;;24.90;99.90;;;;;;5093234;28;20589;-68
2022/07/25 07:28:40;;;;;;;9.90;7.15;;;25.00;99.90;;;;;;5093550;28;20173;-68
2022/07/25 07:31:06;;;;;;;9.00;6.50;;;25.20;99.90;;;;;;5094256;28;20232;-69
2022/07/25 07:33:32;;;;;;;9.27;6.90;;;25.30;99.90;;;;;;5093330;28;20204;-69
2022/07/25 07:35:58;;;;;;;9.25;6.93;;;25.30;99.90;;;;;;5093477;28;20240;-71
2022/07/25 07:38:24;;;;;;;10.43;7.25;;;25.40;99.90;;;;;;5092205;28;20249;-70
2022/07/25 07:40:51;;;;;;;9.13;6.53;;;25.50;99.90;;;;;;5093947;28;20216;-70
2022/07/25 07:43:17;;;;;;;9.38;6.60;;;25.60;99.90;;;;;;5093479;28;20215;-72
2022/07/25 07:45:43;;;;;;;8.52;7.18;;;25.60;99.90;;;;;;5094149;28;20173;-70
2022/07/25 07:48:09;;;;;;;11.63;7.18;;;25.70;99.90;;;;;;5097632;28;20169;-70
2022/07/25 07:50:35;;;;;;;10.00;6.00;;;25.80;99.90;;;;;;5097291;28;20210;-70
2022/07/25 07:53:01;;;;;;;9.07;6.93;;;25.70;99.90;;;;;;5095639;28;20208;-69
2022/07/25 07:55:47;;;;;;;8.52;6.40;;;25.70;99.90;;;;;;5095540;28;20230;-70
2022/07/25 07:58:18;;;;;;;8.90;6.20;;;25.70;99.90;;;;;;5096853;28;20210;-70
2022/07/25 08:00:47;;;;;;;8.60;6.22;;;25.60;99.90;;;;;;5096974;28;20276;-69
2022/07/25 08:03:17;;;;;;;8.18;6.20;;;25.50;99.90;;;;;;5095576;28;20548;-70
2022/07/25 08:05:44;;;;;;;7.72;6.38;;;25.60;99.90;;;;;;5096684;28;20173;-69
2022/07/25 08:08:11;;;;;;;11.02;6.97;;;25.60;99.90;;;;;;5096601;28;20248;-69
2022/07/25 08:10:40;;;;;;;9.95;6.63;;;25.70;99.90;;;;;;5096893;28;20183;-69
2022/07/25 08:13:15;;;;;;;9.77;5.97;;;25.70;99.90;;;;;;5095075;28;20197;-70
2022/07/25 08:15:43;;;;;;;8.15;6.68;;;25.80;99.90;;;;;;5096516;28;20172;-69
2022/07/25 08:18:09;;;;;;;9.52;6.38;;;25.90;99.90;;;;;;5096198;28;20195;-70
2022/07/25 08:20:35;;;;;;;10.00;6.80;;;26.00;99.90;;;;;;5096548;28;20279;-68
2022/07/25 08:23:02;;;;;;;8.65;6.22;;;26.10;99.90;;;;;;5096705;28;20208;-69
2022/07/25 08:25:28;;;;;;;7.13;6.05;;;26.20;99.90;;;;;;5096558;28;20169;-70
2022/07/25 08:27:54;;;;;;;8.98;6.43;;;26.40;99.90;;;;;;5096642;28;20570;-70
2022/07/25 08:30:20;;;;;;;8.25;6.57;;;26.50;99.90;;;;;;5094973;28;20268;-70
2022/07/25 08:32:51;;;;;;;10.80;6.28;;;26.70;99.90;;;;;;5094784;28;20288;-69
2022/07/25 08:35:20;;;;;;;9.43;6.57;;;26.80;99.90;;;;;;5096447;28;20525;-70
2022/07/25 08:37:46;;;;;;;8.40;6.07;;;26.90;99.90;;;;;;5095881;28;20240;-69
2022/07/25 08:40:14;;;;;;;7.78;6.10;;;26.90;99.90;;;;;;5096287;28;20181;-70
2022/07/25 08:42:40;;;;;;;9.27;6.75;;;27.10;99.90;;;;;;5094699;28;20586;-69
2022/07/25 08:45:07;;;;;;;7.03;5.97;;;27.30;99.90;;;;;;5094609;28;20660;-69
2022/07/25 08:47:35;;;;;;;8.90;6.35;;;27.50;99.90;;;;;;5095891;28;20165;-69
2022/07/25 08:50:07;;;;;;;10.02;6.43;;;27.70;99.90;;;;;;5096124;28;20157;-70
2022/07/25 08:52:34;;;;;;;10.02;6.28;;;28.00;99.90;;;;;;5094142;28;20697;-69
2022/07/25 08:55:02;;;;;;;12.50;6.80;;;28.20;99.90;;;;;;5094497;28;20180;-69
2022/07/25 08:57:28;;;;;;;7.65;6.40;;;28.30;99.90;;;;;;5095239;28;20610;-70
2022/07/25 09:00:00;;;;;;;8.43;6.18;;;28.40;99.90;;;;;;5095014;28;20172;-70
2022/07/25 09:02:27;;;;;;;7.95;6.32;;;28.40;99.90;;;;;;5095735;28;20212;-69
2022/07/25 09:04:54;;;;;;;8.73;6.97;;;28.50;99.90;;;;;;5096081;28;20173;-64
2022/07/25 09:07:35;;;;;;;8.75;6.63;;;28.70;99.90;;;;;;5098929;28;20158;-69
2022/07/25 09:10:15;;;;;;;9.55;6.75;;;28.70;99.90;;;;;;5095547;28;20176;-66
2022/07/25 09:12:49;;;;;;;7.68;6.38;;;28.70;99.90;;;;;;5095651;28;20237;-64
2022/07/25 09:15:28;;;;;;;7.93;5.97;;;28.60;99.90;;;;;;5096340;28;20161;-70
2022/07/25 09:17:56;;;;;;;9.63;6.38;;;28.60;99.90;;;;;;5096307;28;20272;-65
2022/07/25 09:20:24;;;;;;;9.10;6.38;;;28.50;99.90;;;;;;5096259;28;20685;-67
2022/07/25 09:22:50;;;;;;;7.57;6.15;;;28.50;99.90;;;;;;5095738;28;20193;-65
2022/07/25 09:25:20;;;;;;;7.38;6.53;;;28.40;99.90;;;;;;5095893;28;20231;-68
2022/07/25 09:27:46;;;;;;;9.82;6.60;;;28.40;99.90;;;;;;5096255;28;20208;-67
2022/07/25 09:30:15;;;;;;;9.38;6.80;;;28.30;99.90;;;;;;5094054;28;20223;-66
2022/07/25 09:32:41;;;;;;;10.95;6.80;;;28.40;99.90;;;;;;5095273;28;20240;-65
2022/07/25 09:35:07;;;;;;;10.95;6.95;;;28.50;99.90;;;;;;5095936;28;20627;-64
2022/07/25 09:37:33;;;;;;;8.32;6.47;;;28.60;99.90;;;;;;5096029;28;20213;-66
2022/07/25 09:39:59;;;;;;;7.30;6.32;;;28.80;99.90;;;;;;5095652;28;20217;-68
2022/07/25 09:42:32;;;;;;;8.85;6.03;;;29.20;99.90;;;;;;5095651;28;20200;-70
2022/07/25 09:45:14;;;;;;;9.13;6.00;;;29.40;99.90;;;;;;5096750;28;20548;-67
2022/07/25 09:48:01;;;;;;;7.30;6.18;;;29.50;99.90;;;;;;5095875;28;20153;-68
2022/07/25 09:50:30;;;;;;;10.23;6.63;;;29.60;99.90;;;;;;5095128;28;20169;-68
2022/07/25 09:53:01;;;;;;;7.60;6.45;;;29.50;99.90;;;;;;5094476;28;20212;-67
2022/07/25 09:55:28;;;;;;;7.63;6.15;;;29.50;99.90;;;;;;5093339;28;20184;-68
2022/07/25 09:57:54;;;;;;;9.27;6.40;;;29.50;99.90;;;;;;5095115;28;20187;-68
2022/07/25 10:00:22;;;;;;;10.00;6.72;;;29.60;99.90;;;;;;5094690;28;20193;-68
2022/07/25 10:03:00;;;;;;;8.75;6.07;;;29.70;99.90;;;;;;5093156;28;20201;-68
2022/07/25 10:05:35;;;;;;;9.52;6.65;;;29.90;99.90;;;;;;5093177;28;20161;-68
2022/07/25 10:08:06;;;;;;;8.50;6.60;;;29.90;99.90;;;;;;5092855;28;20173;-68
2022/07/25 10:10:38;;;;;;;11.05;6.50;;;29.90;99.90;;;;;;5076194;28;20264;-68
2022/07/25 10:13:16;;;;;;;9.98;6.53;;;29.90;99.90;;;;;;5094373;28;20276;-68
2022/07/25 10:15:50;;;;;;;8.75;6.40;;;29.80;99.90;;;;;;5094476;28;20169;-68
2022/07/25 10:18:21;;;;;;;8.60;7.00;;;29.70;99.90;;;;;;5094015;28;20195;-68
2022/07/25 10:20:49;;;;;;;8.30;6.47;;;29.50;99.90;;;;;;5094127;28;20177;-68
2022/07/25 10:23:19;;;;;;;9.30;6.53;;;29.50;99.90;;;;;;5094023;28;20685;-68
2022/07/25 10:25:45;;;;;;;11.23;6.88;;;29.30;99.90;;;;;;5093892;28;20173;-68
2022/07/25 10:28:17;;;;;;;9.18;6.57;;;29.20;99.90;;;;;;5094011;28;20173;-68
2022/07/25 10:30:43;;;;;;;8.50;6.35;;;29.20;99.90;;;;;;5094449;28;20183;-68
2022/07/25 10:33:14;;;;;;;9.38;7.53;;;29.40;99.90;;;;;;5093967;28;20665;-68
2022/07/25 10:35:41;;;;;;;10.55;6.82;;;29.30;99.90;;;;;;5094136;28;20703;-68
2022/07/25 10:38:07;;;;;;;9.90;6.45;;;29.10;99.90;;;;;;5093671;28;20168;-68
2022/07/25 10:40:42;;;;;;;9.07;6.72;;;28.90;99.90;;;;;;5093795;28;20196;-68
2022/07/25 10:43:12;;;;;;;9.80;6.95;;;28.70;99.90;;;;;;5094366;28;20275;-68
2022/07/25 10:45:47;;;;;;;8.00;6.13;;;28.60;99.90;;;;;;5093820;28;20157;-68
2022/07/25 10:48:22;;;;;;;10.10;7.18;;;28.60;99.90;;;;;;5093704;28;20192;-68
2022/07/25 10:51:00;;;;;;;9.88;7.38;;;28.50;99.90;;;;;;5093640;28;20160;-68
2022/07/25 10:53:37;;;;;;;9.95;6.45;;;28.40;99.90;;;;;;5093633;28;20207;-68
2022/07/25 10:56:06;;;;;;;9.65;7.13;;;28.20;99.90;;;;;;5093594;28;20698;-68
2022/07/25 10:58:52;;;;;;;8.30;6.50;;;28.10;99.90;;;;;;5093573;28;20176;-68
2022/07/25 11:01:32;;;;;;;9.02;6.30;;;27.90;99.90;;;;;;5093743;28;20181;-68
2022/07/25 11:04:01;;;;;;;8.85;6.68;;;27.90;99.90;;;;;;5093766;28;20195;-68
2022/07/25 11:06:38;;;;;;;11.90;7.10;;;27.80;99.90;;;;;;5093273;28;20179;-68
2022/07/25 11:09:19;;;;;;;9.20;6.25;;;27.80;99.90;;;;;;5093452;28;20175;-68
2022/07/25 11:11:47;;;;;;;8.50;6.47;;;27.70;99.90;;;;;;5094017;28;20161;-67
2022/07/25 11:14:19;;;;;;;8.38;6.72;;;27.60;99.90;;;;;;5092132;28;20205;-68
2022/07/25 11:16:47;;;;;;;8.90;6.47;;;27.50;99.90;;;;;;5092141;28;20204;-68
2022/07/25 11:19:22;;;;;;;15.38;6.30;;;27.50;99.90;;;;;;5093277;28;20189;-68
2022/07/25 11:22:03;;;;;;;9.48;6.90;;;27.60;99.90;;;;;;5094666;28;20188;-68
2022/07/25 11:24:36;;;;;;;7.78;6.20;;;27.60;99.90;;;;;;5097345;28;20673;-68
2022/07/25 11:27:02;;;;;;;10.75;6.82;;;27.60;99.90;;;;;;5097452;28;20656;-68
2022/07/25 11:29:28;;;;;;;9.95;6.75;;;27.70;99.90;;;;;;5097937;28;20201;-68
2022/07/25 11:32:11;;;;;;;8.77;6.97;;;27.80;99.90;;;;;;5096076;28;20180;-68
2022/07/25 11:34:42;;;;;;;8.15;6.03;;;28.10;99.90;;;;;;5100720;28;20306;-69
2022/07/25 11:37:11;;;;;;;11.00;6.72;;;28.40;99.90;;;;;;5096292;28;20208;-66
2022/07/25 11:39:39;;;;;;;9.13;6.18;;;28.70;99.90;;;;;;5096104;28;20180;-67
2022/07/25 11:42:07;;;;;;;10.05;6.68;;;29.00;99.90;;;;;;5097329;28;20689;-64
2022/07/25 11:44:36;;;;;;;9.70;6.28;;;29.10;99.90;;;;;;5097389;28;20512;-68
2022/07/25 11:47:05;;;;;;;13.93;6.60;;;29.30;99.90;;;;;;5097162;28;20215;-67
2022/07/25 11:49:31;;;;;;;10.27;6.78;;;29.30;99.90;;;;;;5097983;28;20157;-70
2022/07/25 11:51:56;;;;;;;7.97;6.15;;;29.30;99.90;;;;;;5097725;28;20237;-64
2022/07/25 11:54:22;;;;;;;8.52;6.38;;;29.10;99.90;;;;;;5097091;28;20215;-64
2022/07/25 11:56:48;;;;;;;12.30;7.00;;;28.80;99.90;;;;;;5099112;28;20175;-65
2022/07/25 11:59:15;;;;;;;9.82;6.82;;;28.80;99.90;;;;;;5098365;28;20184;-67
2022/07/25 12:01:43;;;;;;;8.00;6.80;;;28.90;99.90;;;;;;5096918;28;20224;-68
2022/07/25 12:04:17;;;;;;;9.60;6.38;;;29.00;99.90;;;;;;5095571;28;20200;-68
2022/07/25 12:06:48;;;;;;;9.38;6.38;;;28.80;99.90;;;;;;5096664;28;20172;-68
2022/07/25 12:09:19;;;;;;;9.48;6.53;;;28.60;99.90;;;;;;5097075;28;20236;-68
2022/07/25 12:11:46;;;;;;;12.50;7.40;;;28.60;99.90;;;;;;5095330;28;20176;-68
2022/07/25 12:14:12;;;;;;;8.48;6.93;;;28.60;99.90;;;;;;5096699;28;20329;-67
2022/07/25 12:16:39;;;;;;;9.48;6.75;;;28.60;99.90;;;;;;5096926;28;20200;-66
2022/07/25 12:19:09;;;;;;;9.57;6.85;;;28.90;99.90;;;;;;5096692;28;20196;-66
2022/07/25 12:21:35;;;;;;;9.00;7.18;;;29.20;99.90;;;;;;5096697;28;20192;-66
2022/07/25 12:24:01;;;;;;;8.98;7.50;;;29.30;99.90;;;;;;5096760;28;20204;-66
2022/07/25 12:26:27;;;;;;;10.00;6.82;;;29.40;99.90;;;;;;5096950;28;20158;-66
2022/07/25 12:28:53;;;;;;;10.13;6.70;;;29.50;99.90;;;;;;5098059;28;20694;-66
2022/07/25 12:31:19;;;;;;;10.93;6.38;;;29.50;99.90;;;;;;5097227;28;20174;-66
2022/07/25 12:33:45;;;;;;;9.65;6.85;;;29.50;99.90;;;;;;5096795;28;20193;-66
2022/07/25 12:36:12;;;;;;;8.70;6.32;;;29.60;99.90;;;;;;5096792;28;20157;-66
2022/07/25 12:38:38;;;;;;;9.32;6.93;;;29.50;99.90;;;;;;5096538;28;20156;-69
2022/07/25 12:41:04;;;;;;;17.25;7.55;;;29.30;99.90;;;;;;5097175;28;20196;-69
2022/07/25 12:43:30;;;;;;;63.30;11.38;;;29.10;99.90;;;;;;5096238;28;20193;-69